Kihou Maru — JD3372 — position and weather

sailwx.info

Track history (hours):
 
Tides and Currents Weather Stations Pressure Air Temp Water Temp Dewpoint Dewpoint Depression Visibility Wind Speed Wind Dir Waves Ship Positions

Kihou Maru

Last reported at 2017-Oct-20 01:44 UTC. Time now 2017-Oct-20 03:27 UTC.
Position N 34°38' E 135°23'.

Length 58 m.

Type: Cargo ship. MMSI: 431003527.

Date/timePositionNaut miles runAvg speedWind from/ knotsBaromVisibWave heightAir tempDewpointWater temp
2017-Oct-20 01:44N 34°38' E 135°23'2 6.6
2017-Oct-20 01:26N 34°39' E 135°21'1 1.4
2017-Oct-20 01:00N 34°38' E 135°20'510.1
2017-Oct-20 00:30N 34°36' E 135°15'510.4
2017-Oct-20 00:00N 34°35' E 135°09'  
2017-Oct-17 17:03N 34°36' E 135°05'0 8.9
2017-Oct-17 17:00N 34°36' E 135°05'510.9
2017-Oct-17 16:30N 34°36' E 135°12'611.1
2017-Oct-17 15:59N 34°37' E 135°19'610.8
2017-Oct-17 15:28N 34°36' E 135°25'1 0.1
2017-Oct-17 05:48N 34°36' E 135°24'3 0.1
2017-Oct-16 05:42N 34°39' E 135°26'1 0.1
2017-Oct-15 17:42N 34°39' E 135°26'210.0
2017-Oct-15 17:28N 34°38' E 135°23'4 8.2
2017-Oct-15 17:00N 34°38' E 135°19'510.2
2017-Oct-15 16:30N 34°36' E 135°13'611.4
2017-Oct-15 15:56N 34°35' E 135°05'2 0.1
2017-Oct-14 08:57N 34°36' E 135°03'611.8
2017-Oct-14 08:29N 34°37' E 135°10'612.0
2017-Oct-14 08:00N 34°38' E 135°17'511.0
2017-Oct-14 07:30N 34°38' E 135°24'1 1.3
2017-Oct-14 06:56N 34°38' E 135°25'0 0.0
2017-Oct-14 06:20N 34°38' E 135°25'0 0.0
2017-Oct-14 02:54N 34°38' E 135°25'1 1.3
2017-Oct-14 02:27N 34°38' E 135°24'4 6.2
2017-Oct-14 01:45N 34°36' E 135°19'410.9
2017-Oct-14 01:23N 34°35' E 135°14'511.6
2017-Oct-14 00:55N 34°35' E 135°08'  
2017-Oct-10 22:07N 34°36' E 135°06'111.0
2017-Oct-10 22:00N 34°36' E 135°07'611.1
2017-Oct-10 21:30N 34°37' E 135°14'611.2
2017-Oct-10 20:57N 34°36' E 135°21'2 0.2
2017-Oct-10 05:40N 34°38' E 135°24'2 0.7
2017-Oct-10 02:16N 34°40' E 135°26'0 1.0
2017-Oct-10 01:59N 34°39' E 135°26'  
Track history (hours):
 
Tides and Currents Weather Stations Pressure Air Temp Water Temp Dewpoint Dewpoint Depression Visibility Wind Speed Wind Dir Waves Ship Positions

Kihou Maru

Last reported at 2017-Oct-20 01:44 UTC. Time now 2017-Oct-20 03:27 UTC.
Position N 34°38' E 135°23'.

Length 58 m.

Type: Cargo ship. MMSI: 431003527.

Date/timePositionNaut miles runAvg speedWind from/ knotsBaromVisibWave heightAir tempDewpointWater temp
2017-Oct-20 01:44N 34°38' E 135°23'2 6.6
2017-Oct-20 01:26N 34°39' E 135°21'1 1.4
2017-Oct-20 01:00N 34°38' E 135°20'510.1
2017-Oct-20 00:30N 34°36' E 135°15'510.4
2017-Oct-20 00:00N 34°35' E 135°09'  
2017-Oct-17 17:03N 34°36' E 135°05'0 8.9
2017-Oct-17 17:00N 34°36' E 135°05'510.9
2017-Oct-17 16:30N 34°36' E 135°12'611.1
2017-Oct-17 15:59N 34°37' E 135°19'610.8
2017-Oct-17 15:28N 34°36' E 135°25'1 0.1
2017-Oct-17 05:48N 34°36' E 135°24'3 0.1
2017-Oct-16 05:42N 34°39' E 135°26'1 0.1
2017-Oct-15 17:42N 34°39' E 135°26'210.0
2017-Oct-15 17:28N 34°38' E 135°23'4 8.2
2017-Oct-15 17:00N 34°38' E 135°19'510.2
2017-Oct-15 16:30N 34°36' E 135°13'611.4
2017-Oct-15 15:56N 34°35' E 135°05'2 0.1
2017-Oct-14 08:57N 34°36' E 135°03'611.8
2017-Oct-14 08:29N 34°37' E 135°10'612.0
2017-Oct-14 08:00N 34°38' E 135°17'511.0
2017-Oct-14 07:30N 34°38' E 135°24'1 1.3
2017-Oct-14 06:56N 34°38' E 135°25'0 0.0
2017-Oct-14 06:20N 34°38' E 135°25'0 0.0
2017-Oct-14 02:54N 34°38' E 135°25'1 1.3
2017-Oct-14 02:27N 34°38' E 135°24'4 6.2
2017-Oct-14 01:45N 34°36' E 135°19'410.9
2017-Oct-14 01:23N 34°35' E 135°14'511.6
2017-Oct-14 00:55N 34°35' E 135°08'  
2017-Oct-10 22:07N 34°36' E 135°06'111.0
2017-Oct-10 22:00N 34°36' E 135°07'611.1
2017-Oct-10 21:30N 34°37' E 135°14'611.2
2017-Oct-10 20:57N 34°36' E 135°21'2 0.2
2017-Oct-10 05:40N 34°38' E 135°24'2 0.7
2017-Oct-10 02:16N 34°40' E 135°26'0 1.0
2017-Oct-10 01:59N 34°39' E 135°26'  

Dump ship's entire track history